createdAt,value
2019-03-13T14:27:28.695Z,51.40
2019-03-13T14:29:56.080Z,65.00
2019-03-13T14:32:23.508Z,86.90
2019-03-13T14:34:51.235Z,91.90
2019-03-13T14:37:18.830Z,91.40
2019-03-13T14:39:46.485Z,81.90
2019-03-13T14:42:14.114Z,76.70
2019-03-13T14:44:41.514Z,74.30
2019-03-13T14:47:08.807Z,61.80
2019-03-13T14:49:36.145Z,56.50
2019-03-13T14:52:04.124Z,56.10
2019-03-13T14:54:31.523Z,53.80
2019-03-13T14:56:59.124Z,62.00
2019-03-13T14:59:26.439Z,76.40
2019-03-13T15:01:53.910Z,85.70
2019-03-13T15:04:21.344Z,90.20
2019-03-13T15:06:48.833Z,91.80
2019-03-13T15:09:16.782Z,92.90
2019-03-13T15:11:44.255Z,93.90
2019-03-13T15:14:11.579Z,94.20
2019-03-13T15:16:39.020Z,95.20
2019-03-13T15:19:06.604Z,95.70
2019-03-13T15:21:34.175Z,95.80
2019-03-13T15:24:01.562Z,95.90
2019-03-13T15:26:29.147Z,95.90
2019-03-13T15:28:56.552Z,95.60
2019-03-13T15:31:23.831Z,94.50
2019-03-13T15:33:51.710Z,95.70
2019-03-13T15:36:19.024Z,99.10
2019-03-13T15:38:46.341Z,99.40
2019-03-13T15:41:13.772Z,99.90
2019-03-13T15:43:41.047Z,99.90
2019-03-13T15:46:08.369Z,99.90
2019-03-13T15:48:36.056Z,98.30
2019-03-13T15:51:03.496Z,98.70
2019-03-13T15:53:31.016Z,98.20
2019-03-13T15:55:58.537Z,97.00
2019-03-13T15:58:25.985Z,97.70
2019-03-13T16:00:57.904Z,97.50
2019-03-13T16:03:28.356Z,97.30
2019-03-13T16:05:55.675Z,97.50
2019-03-13T16:08:23.120Z,97.70
2019-03-13T16:10:50.473Z,97.30
2019-03-13T16:13:18.172Z,97.60
2019-03-13T16:15:46.350Z,97.70
2019-03-13T16:18:13.858Z,98.00
2019-03-13T16:20:41.238Z,98.10
2019-03-13T16:23:08.704Z,98.40
2019-03-13T16:25:36.705Z,98.00
2019-03-13T16:28:04.310Z,98.10
2019-03-13T16:30:35.061Z,97.80
2019-03-13T16:33:02.378Z,97.50
2019-03-13T16:35:29.779Z,97.80
2019-03-13T16:37:57.129Z,97.00
2019-03-13T16:40:24.611Z,96.80
2019-03-13T16:42:51.984Z,96.10
2019-03-13T16:45:19.791Z,95.90
2019-03-13T16:47:47.121Z,95.70
2019-03-13T16:50:15.248Z,95.40
2019-03-13T16:52:42.582Z,95.10
2019-03-13T16:55:12.578Z,94.60
2019-03-13T16:57:40.011Z,94.60
2019-03-13T17:00:11.158Z,95.10
2019-03-13T17:02:42.023Z,94.40
2019-03-13T17:05:11.040Z,94.80
2019-03-13T17:07:38.372Z,94.90
2019-03-13T17:10:06.635Z,94.90
2019-03-13T17:12:34.030Z,95.20
2019-03-13T17:15:01.883Z,95.70
2019-03-13T17:17:29.901Z,95.50
2019-03-13T17:19:57.340Z,95.90
2019-03-13T17:22:25.013Z,95.60
2019-03-13T17:24:53.008Z,95.70
2019-03-13T17:27:20.700Z,95.80
2019-03-13T17:29:48.065Z,95.90
2019-03-13T17:32:16.008Z,95.70
2019-03-13T17:34:43.364Z,96.40
2019-03-13T17:37:10.820Z,96.60
2019-03-13T17:39:38.306Z,96.70
2019-03-13T17:42:05.643Z,96.70
2019-03-13T17:44:33.283Z,96.50
2019-03-13T17:47:00.902Z,96.80
2019-03-13T17:49:36.017Z,96.70
2019-03-13T17:52:03.686Z,97.10
2019-03-13T17:54:31.078Z,97.10
2019-03-13T17:56:58.765Z,96.70
2019-03-13T17:59:26.064Z,96.20
2019-03-13T18:01:53.475Z,96.20
2019-03-13T18:04:20.822Z,96.10
2019-03-13T18:06:48.482Z,96.00
2019-03-13T18:09:15.903Z,96.30
2019-03-13T18:11:43.251Z,96.40
2019-03-13T18:14:10.945Z,96.80
2019-03-13T18:16:38.363Z,96.50
2019-03-13T18:19:05.669Z,96.40
2019-03-13T18:21:33.281Z,96.70
2019-03-13T18:24:00.685Z,96.40
2019-03-13T18:26:29.669Z,95.90
2019-03-13T18:28:59.085Z,95.80
2019-03-13T18:31:26.363Z,95.90
2019-03-13T18:33:54.029Z,96.00
2019-03-13T18:36:21.718Z,95.70
2019-03-13T18:38:49.452Z,95.80
2019-03-13T18:41:16.857Z,96.00
2019-03-13T18:43:44.576Z,96.00
2019-03-13T18:46:11.948Z,95.70
2019-03-13T18:48:39.280Z,95.60
2019-03-13T18:51:06.657Z,95.50
2019-03-13T18:53:33.966Z,95.40
2019-03-13T18:56:01.642Z,95.70
2019-03-13T18:58:29.337Z,95.60
2019-03-13T19:00:58.260Z,95.90
2019-03-13T19:03:26.038Z,96.20
2019-03-13T19:05:54.880Z,96.50
2019-03-13T19:08:22.373Z,96.50
2019-03-13T19:10:49.761Z,97.20
2019-03-13T19:13:17.199Z,97.40
2019-03-13T19:15:44.629Z,97.50
2019-03-13T19:18:12.352Z,97.40
2019-03-13T19:20:39.781Z,97.40
2019-03-13T19:23:07.157Z,97.70
2019-03-13T19:25:34.839Z,97.80
2019-03-13T19:28:02.179Z,97.90
2019-03-13T19:30:29.834Z,98.00
2019-03-13T19:32:57.658Z,98.10
2019-03-13T19:35:25.095Z,98.00
2019-03-13T19:37:53.360Z,98.10
2019-03-13T19:40:20.801Z,98.50
2019-03-13T19:42:48.228Z,98.70
2019-03-13T19:45:21.018Z,98.60
2019-03-13T19:47:48.368Z,98.40
2019-03-13T19:50:15.778Z,98.30
2019-03-13T19:52:43.383Z,98.60
2019-03-13T19:55:11.552Z,98.50
2019-03-13T19:57:38.873Z,98.30
2019-03-13T20:00:09.583Z,98.10
2019-03-13T20:02:37.002Z,97.90
2019-03-13T20:05:04.868Z,97.80
2019-03-13T20:07:32.894Z,97.80
2019-03-13T20:10:00.666Z,97.80
2019-03-13T20:12:28.461Z,97.70
2019-03-13T20:14:56.023Z,97.50
2019-03-13T20:17:23.317Z,97.80
2019-03-13T20:19:52.287Z,97.70
2019-03-13T20:22:22.678Z,97.70
2019-03-13T20:24:49.263Z,97.90
2019-03-13T20:27:16.710Z,98.40
2019-03-13T20:29:44.168Z,98.40
2019-03-13T20:32:11.942Z,98.50
2019-03-13T20:34:39.875Z,98.80
2019-03-13T20:37:07.439Z,98.60
2019-03-13T20:39:34.950Z,99.10
2019-03-13T20:42:02.513Z,99.20
2019-03-13T20:44:30.247Z,99.60
2019-03-13T20:46:57.770Z,98.70
2019-03-13T20:49:25.198Z,98.40
2019-03-13T20:51:52.547Z,98.70
2019-03-13T20:54:20.008Z,98.60
2019-03-13T20:56:47.412Z,98.60
2019-03-13T20:59:15.165Z,98.70
2019-03-13T21:01:42.665Z,98.30
2019-03-13T21:04:10.094Z,98.20
2019-03-13T21:06:37.458Z,97.90
2019-03-13T21:09:05.483Z,97.60
2019-03-13T21:11:33.315Z,97.50
2019-03-13T21:14:00.693Z,97.40
2019-03-13T21:16:28.103Z,97.40
2019-03-13T21:18:55.425Z,96.90
2019-03-13T21:21:26.406Z,97.20
2019-03-13T21:23:54.075Z,97.10
2019-03-13T21:26:21.778Z,96.80
2019-03-13T21:28:49.122Z,97.00
2019-03-13T21:31:16.895Z,96.70
2019-03-13T21:33:44.318Z,96.50
2019-03-13T21:36:11.652Z,96.60
2019-03-13T21:38:39.310Z,96.80
2019-03-13T21:41:07.185Z,96.20
2019-03-13T21:43:34.928Z,95.90
2019-03-13T21:46:02.582Z,95.70
2019-03-13T21:48:30.063Z,95.90
2019-03-13T21:50:57.480Z,95.40
2019-03-13T21:53:27.492Z,95.30
2019-03-13T21:55:55.483Z,95.60
2019-03-13T21:58:25.756Z,95.20
2019-03-13T22:00:53.500Z,95.20
2019-03-13T22:03:28.796Z,95.20
2019-03-13T22:05:50.769Z,94.50
2019-03-13T22:08:18.528Z,94.70
2019-03-13T22:10:46.444Z,94.90
2019-03-13T22:13:14.084Z,94.40
2019-03-13T22:15:41.519Z,94.20
2019-03-13T22:18:09.014Z,94.50
2019-03-13T22:20:36.556Z,94.40
2019-03-13T22:23:03.936Z,94.70
2019-03-13T22:25:31.712Z,94.60
2019-03-13T22:27:59.499Z,95.00
2019-03-13T22:30:28.800Z,95.10
2019-03-13T22:32:56.090Z,94.40
2019-03-13T22:35:23.719Z,94.40
2019-03-13T22:37:51.127Z,93.90
2019-03-13T22:40:18.748Z,94.20
2019-03-13T22:42:47.066Z,94.50
2019-03-13T22:45:14.937Z,94.50
2019-03-13T22:47:43.348Z,94.00
2019-03-13T22:50:15.633Z,93.60
2019-03-13T22:52:45.592Z,93.70
2019-03-13T22:55:13.345Z,94.00
2019-03-13T22:57:42.394Z,93.50
2019-03-13T23:00:47.991Z,93.50
2019-03-13T23:03:16.551Z,93.40
2019-03-13T23:05:44.361Z,93.10
2019-03-13T23:08:12.635Z,93.70
2019-03-13T23:10:41.092Z,93.50
2019-03-13T23:13:08.444Z,93.70
2019-03-13T23:15:35.741Z,93.90
2019-03-13T23:18:03.135Z,93.90
2019-03-13T23:20:30.539Z,94.40
2019-03-13T23:22:57.869Z,94.50
2019-03-13T23:25:25.219Z,94.60
2019-03-13T23:27:52.612Z,94.90
2019-03-13T23:30:19.933Z,95.10
2019-03-13T23:32:47.355Z,95.30
2019-03-13T23:35:14.785Z,95.00
2019-03-13T23:37:42.090Z,95.50
2019-03-13T23:40:09.791Z,95.20
2019-03-13T23:42:37.095Z,94.70
2019-03-13T23:45:04.800Z,94.90
2019-03-13T23:47:32.102Z,94.60
2019-03-13T23:49:59.518Z,95.00
2019-03-13T23:52:26.927Z,94.70
2019-03-13T23:54:54.260Z,95.00
2019-03-13T23:57:21.964Z,94.70
2019-03-13T23:59:49.275Z,94.30
